Time;durP1;ratioP1;P1;durP2;ratioP2;P2;SDS_P1;SDS_P2;PMS_P1;PMS_P2;Temp;Humidity;BMP_temperature;BMP_pressure;BME280_temperature;BME280_humidity;BME280_pressure;Samples;Min_cycle;Max_cycle;Signal;HPM_P1;HPM_P2
2022/01/13 00:00:18;;;;;;;37.42;11.45;;;;;;;;;;5020325;28;20049;-53
2022/01/13 00:02:45;;;;;;;54.20;12.10;;;;;;;;;;5034600;28;20060;-54
2022/01/13 00:05:11;;;;;;;45.75;12.15;;;;;;;;;;5039081;28;20077;-53
2022/01/13 00:07:39;;;;;;;42.05;11.23;;;;;;;;;;5045947;28;20053;-57
2022/01/13 00:10:07;;;;;;;41.78;10.77;;;;;;;;;;5028454;28;20045;-54
2022/01/13 00:12:38;;;;;;;45.95;10.57;;;;;;;;;;5043963;28;20053;-51
2022/01/13 00:15:20;;;;;;;39.80;10.35;;;;;;;;;;5036723;28;20046;-50
2022/01/13 00:18:00;;;;;;;40.85;10.13;;;;;;;;;;5025997;28;20124;-52
2022/01/13 00:20:48;;;;;;;32.42;8.68;;;;;;;;;;5020885;28;20053;-55
2022/01/13 00:26:02;;;;;;;42.28;10.30;;;;;;;;;;5029085;28;20082;-51
2022/01/13 00:28:28;;;;;;;39.05;10.98;;;;;;;;;;5045754;28;20060;-54
2022/01/13 00:30:57;;;;;;;42.70;10.63;;;;;;;;;;5033125;28;20049;-50
2022/01/13 00:33:25;;;;;;;30.25;8.95;;;;;;;;;;5025863;28;20049;-54
2022/01/13 00:35:52;;;;;;;37.35;8.93;;;;;;;;;;5024270;28;20060;-53
2022/01/13 00:38:20;;;;;;;40.80;10.98;;;;;;;;;;5044995;28;20055;-51
2022/01/13 00:40:47;;;;;;;33.83;9.65;;;;;;;;;;5038608;28;20182;-50
2022/01/13 00:43:13;;;;;;;42.35;10.65;;;;;;;;;;5046490;28;20076;-51
2022/01/13 00:45:40;;;;;;;34.13;9.85;;;;;;;;;;5046640;28;20081;-52
2022/01/13 00:48:07;;;;;;;44.08;11.23;;;;;;;;;;5017974;28;20053;-52
2022/01/13 00:50:33;;;;;;;40.50;10.63;;;;;;;;;;5022264;28;20058;-52
2022/01/13 00:53:00;;;;;;;35.97;9.60;;;;;;;;;;5050590;28;20052;-53
2022/01/13 00:55:43;;;;;;;32.88;8.93;;;;;;;;;;5045575;28;20049;-51
2022/01/13 00:58:09;;;;;;;35.25;9.93;;;;;;;;;;5022664;28;20057;-51
2022/01/13 01:00:36;;;;;;;40.25;10.43;;;;;;;;;;5026107;28;20139;-47
2022/01/13 01:03:02;;;;;;;35.67;9.98;;;;;;;;;;5033767;28;20071;-53
2022/01/13 01:05:29;;;;;;;43.55;11.25;;;;;;;;;;5045811;28;20091;-52
2022/01/13 01:07:55;;;;;;;33.55;9.55;;;;;;;;;;5038588;28;20152;-58
2022/01/13 01:10:23;;;;;;;39.40;10.17;;;;;;;;;;5044016;28;20057;-50
2022/01/13 01:12:51;;;;;;;34.05;9.60;;;;;;;;;;5030017;28;20308;-50
2022/01/13 01:15:18;;;;;;;34.10;9.30;;;;;;;;;;5007275;28;20080;-50
2022/01/13 01:17:51;;;;;;;35.03;9.88;;;;;;;;;;5006419;28;20100;-53
2022/01/13 01:20:19;;;;;;;38.55;9.00;;;;;;;;;;5024221;28;20054;-55
2022/01/13 01:23:00;;;;;;;32.22;8.82;;;;;;;;;;5018824;28;20045;-53
2022/01/13 01:25:44;;;;;;;31.10;8.82;;;;;;;;;;5005793;28;20140;-54
2022/01/13 01:28:18;;;;;;;37.20;9.95;;;;;;;;;;5011856;28;20152;-55
2022/01/13 01:30:47;;;;;;;41.78;9.35;;;;;;;;;;5043303;28;20065;-54
2022/01/13 01:33:17;;;;;;;35.35;8.68;;;;;;;;;;5019979;28;20053;-50
2022/01/13 01:35:44;;;;;;;34.72;10.25;;;;;;;;;;5025803;28;20469;-52
2022/01/13 01:38:11;;;;;;;38.08;9.98;;;;;;;;;;5022130;28;20053;-56
2022/01/13 01:40:37;;;;;;;35.97;9.00;;;;;;;;;;5045364;28;20053;-57
2022/01/13 01:43:04;;;;;;;27.42;7.82;;;;;;;;;;5037606;28;20294;-55
2022/01/13 01:45:41;;;;;;;34.53;9.30;;;;;;;;;;5024866;28;20061;-56
2022/01/13 01:48:10;;;;;;;33.65;8.30;;;;;;;;;;5023602;28;20104;-53
2022/01/13 01:50:38;;;;;;;29.02;8.55;;;;;;;;;;5021965;28;20115;-55
2022/01/13 01:53:05;;;;;;;31.07;8.23;;;;;;;;;;5025278;28;20063;-58
2022/01/13 01:55:32;;;;;;;27.35;7.93;;;;;;;;;;5035070;28;20057;-57
2022/01/13 01:57:58;;;;;;;30.70;7.90;;;;;;;;;;5044410;28;20072;-58
2022/01/13 02:00:26;;;;;;;33.13;9.20;;;;;;;;;;5037762;28;20076;-59
2022/01/13 02:02:55;;;;;;;35.05;9.25;;;;;;;;;;5044443;28;20077;-51
2022/01/13 02:05:22;;;;;;;21.60;6.95;;;;;;;;;;5025763;28;20084;-55
2022/01/13 02:07:49;;;;;;;26.33;8.27;;;;;;;;;;5025011;28;20053;-54
2022/01/13 02:10:18;;;;;;;28.88;8.07;;;;;;;;;;5019746;28;20057;-54
2022/01/13 02:12:47;;;;;;;27.98;8.65;;;;;;;;;;5021863;28;20060;-51
2022/01/13 02:15:35;;;;;;;25.85;8.15;;;;;;;;;;5010477;28;20068;-55
2022/01/13 02:18:05;;;;;;;22.70;7.15;;;;;;;;;;5024766;28;20057;-56
2022/01/13 02:20:53;;;;;;;25.00;7.35;;;;;;;;;;5022465;28;20127;-55
2022/01/13 02:23:33;;;;;;;22.65;7.70;;;;;;;;;;5009406;28;20061;-51
2022/01/13 02:26:00;;;;;;;24.83;6.97;;;;;;;;;;5015073;28;20151;-54
2022/01/13 02:28:27;;;;;;;24.73;7.40;;;;;;;;;;5028863;28;20141;-54
2022/01/13 02:30:54;;;;;;;21.75;6.45;;;;;;;;;;5029155;28;20134;-51
2022/01/13 02:33:22;;;;;;;22.58;6.07;;;;;;;;;;5047966;28;20048;-56
2022/01/13 02:35:50;;;;;;;24.10;6.68;;;;;;;;;;5041684;28;20076;-50
2022/01/13 02:38:16;;;;;;;21.40;6.47;;;;;;;;;;5048089;28;20064;-52
2022/01/13 02:40:43;;;;;;;21.50;7.00;;;;;;;;;;5037409;28;20049;-53
2022/01/13 02:43:09;;;;;;;19.30;6.65;;;;;;;;;;5029547;28;20057;-49
2022/01/13 02:45:39;;;;;;;20.35;6.47;;;;;;;;;;5026377;28;20115;-55
2022/01/13 02:48:28;;;;;;;20.45;6.13;;;;;;;;;;5050486;28;20144;-52
2022/01/13 02:50:56;;;;;;;25.75;7.07;;;;;;;;;;5040902;28;20073;-52
2022/01/13 02:53:22;;;;;;;20.20;5.97;;;;;;;;;;5048082;28;20131;-51
2022/01/13 02:55:49;;;;;;;24.55;6.95;;;;;;;;;;5042795;28;20098;-47
2022/01/13 02:58:16;;;;;;;25.10;7.28;;;;;;;;;;5026357;28;20073;-51
2022/01/13 03:00:43;;;;;;;24.77;7.78;;;;;;;;;;5025257;28;20128;-55
2022/01/13 03:03:12;;;;;;;20.75;6.78;;;;;;;;;;5019884;28;20069;-55
2022/01/13 03:05:39;;;;;;;23.00;7.07;;;;;;;;;;5027031;28;20049;-52
2022/01/13 03:08:08;;;;;;;24.98;7.45;;;;;;;;;;5022252;28;20049;-50
2022/01/13 03:10:34;;;;;;;29.70;8.10;;;;;;;;;;5027875;28;20057;-52
2022/01/13 03:13:01;;;;;;;22.83;7.25;;;;;;;;;;5021616;28;20076;-54
2022/01/13 03:15:28;;;;;;;31.75;8.15;;;;;;;;;;5028118;28;20041;-51
2022/01/13 03:17:55;;;;;;;33.28;8.38;;;;;;;;;;5022060;28;20139;-53
2022/01/13 03:20:22;;;;;;;27.65;7.05;;;;;;;;;;5027436;28;20057;-54
2022/01/13 03:22:48;;;;;;;25.55;7.57;;;;;;;;;;5021541;28;20103;-50
2022/01/13 03:25:21;;;;;;;25.05;7.15;;;;;;;;;;5028023;28;20514;-54
2022/01/13 03:27:52;;;;;;;28.58;9.05;;;;;;;;;;5021797;28;20045;-55
2022/01/13 03:30:19;;;;;;;35.60;9.05;;;;;;;;;;5026997;28;20132;-51
2022/01/13 03:32:47;;;;;;;31.65;8.38;;;;;;;;;;5021778;28;20477;-50
2022/01/13 03:35:14;;;;;;;29.23;8.43;;;;;;;;;;5026935;28;20057;-55
2022/01/13 03:37:41;;;;;;;27.45;7.70;;;;;;;;;;5021776;28;20084;-58
2022/01/13 03:40:08;;;;;;;28.85;9.23;;;;;;;;;;5027535;28;20057;-54
2022/01/13 03:42:36;;;;;;;36.25;10.20;;;;;;;;;;5026264;28;20115;-54
2022/01/13 03:45:02;;;;;;;27.03;7.93;;;;;;;;;;5022705;28;20053;-53
2022/01/13 03:47:29;;;;;;;32.85;8.77;;;;;;;;;;5026819;28;20054;-54
2022/01/13 03:49:56;;;;;;;37.10;10.10;;;;;;;;;;5021006;28;20057;-58
2022/01/13 03:52:37;;;;;;;35.42;8.80;;;;;;;;;;5026949;28;20072;-57
2022/01/13 03:55:18;;;;;;;31.30;7.68;;;;;;;;;;5021367;28;20060;-57
2022/01/13 03:58:12;;;;;;;31.80;7.85;;;;;;;;;;5024359;28;20060;-52
2022/01/13 04:00:59;;;;;;;30.88;8.95;;;;;;;;;;5006561;28;20111;-52
2022/01/13 04:03:25;;;;;;;40.63;10.35;;;;;;;;;;5015616;28;20045;-51
2022/01/13 04:06:04;;;;;;;35.42;9.35;;;;;;;;;;5029032;28;20114;-50
2022/01/13 04:08:31;;;;;;;29.77;8.90;;;;;;;;;;5030812;28;20057;-52
2022/01/13 04:11:12;;;;;;;27.52;8.35;;;;;;;;;;5026099;28;20045;-57
2022/01/13 04:13:50;;;;;;;36.08;9.20;;;;;;;;;;5021490;28;20060;-47
2022/01/13 04:16:19;;;;;;;34.22;9.95;;;;;;;;;;5055305;28;20581;-52
2022/01/13 04:18:46;;;;;;;39.22;10.43;;;;;;;;;;5046550;28;20098;-53
2022/01/13 04:21:13;;;;;;;33.50;9.65;;;;;;;;;;5038186;28;20055;-54
2022/01/13 04:23:40;;;;;;;39.67;10.10;;;;;;;;;;5046246;28;20048;-54
2022/01/13 04:26:09;;;;;;;49.45;10.25;;;;;;;;;;5028059;28;20048;-51
2022/01/13 04:28:36;;;;;;;34.70;8.85;;;;;;;;;;5027884;28;20059;-50
2022/01/13 04:31:04;;;;;;;32.95;9.40;;;;;;;;;;5024920;28;20041;-53
2022/01/13 04:33:31;;;;;;;33.60;9.30;;;;;;;;;;5046330;28;20083;-57
2022/01/13 04:35:58;;;;;;;41.13;10.90;;;;;;;;;;5028722;28;20045;-53
2022/01/13 04:38:24;;;;;;;30.92;9.35;;;;;;;;;;5025740;28;20053;-52
2022/01/13 04:40:55;;;;;;;38.80;10.35;;;;;;;;;;5017062;28;20065;-51
2022/01/13 04:43:22;;;;;;;36.15;10.85;;;;;;;;;;5045406;28;20135;-54
2022/01/13 04:45:48;;;;;;;40.15;10.88;;;;;;;;;;5033357;28;20081;-53
2022/01/13 04:48:16;;;;;;;32.47;10.95;;;;;;;;;;5008940;28;20136;-52
2022/01/13 04:50:44;;;;;;;36.35;9.82;;;;;;;;;;5008440;28;20081;-50
2022/01/13 04:53:10;;;;;;;38.05;10.70;;;;;;;;;;5029083;28;20061;-48
2022/01/13 04:55:38;;;;;;;49.33;12.20;;;;;;;;;;5023463;28;20080;-51
2022/01/13 04:58:06;;;;;;;29.67;8.27;;;;;;;;;;5045752;28;20057;-50
2022/01/13 05:00:33;;;;;;;34.13;9.57;;;;;;;;;;5043797;28;20053;-51
2022/01/13 05:03:00;;;;;;;39.05;10.13;;;;;;;;;;5022476;28;20076;-53
2022/01/13 05:05:27;;;;;;;47.75;13.00;;;;;;;;;;5029581;28;20143;-57
2022/01/13 05:07:54;;;;;;;42.03;10.70;;;;;;;;;;5023006;28;20152;-49
2022/01/13 05:10:20;;;;;;;41.65;9.63;;;;;;;;;;5027745;28;20365;-52
2022/01/13 05:12:53;;;;;;;29.38;8.50;;;;;;;;;;5021196;28;20068;-52
2022/01/13 05:15:23;;;;;;;35.83;8.07;;;;;;;;;;5025172;28;20052;-55
2022/01/13 05:20:41;;;;;;;32.35;8.27;;;;;;;;;;5026002;28;20074;-53
2022/01/13 05:23:08;;;;;;;32.47;8.85;;;;;;;;;;5020954;28;20061;-54
2022/01/13 05:25:35;;;;;;;28.75;8.82;;;;;;;;;;5028400;28;20049;-54
2022/01/13 05:28:04;;;;;;;30.42;7.97;;;;;;;;;;5021274;28;20140;-51
2022/01/13 05:30:30;;;;;;;28.38;8.13;;;;;;;;;;5026923;28;20064;-52
2022/01/13 05:32:57;;;;;;;28.83;8.00;;;;;;;;;;5021199;28;20111;-54
2022/01/13 05:35:24;;;;;;;23.85;7.55;;;;;;;;;;5028718;28;20126;-55
2022/01/13 05:37:53;;;;;;;29.52;8.07;;;;;;;;;;5022100;28;20056;-50
2022/01/13 05:40:19;;;;;;;27.38;7.13;;;;;;;;;;5028951;28;20073;-55
2022/01/13 05:42:45;;;;;;;25.10;8.23;;;;;;;;;;5022418;28;20127;-50
2022/01/13 05:45:16;;;;;;;20.17;5.90;;;;;;;;;;5027888;28;20053;-57
2022/01/13 05:47:43;;;;;;;25.13;7.25;;;;;;;;;;5018673;28;20057;-56
2022/01/13 05:50:10;;;;;;;26.50;7.25;;;;;;;;;;5026830;28;20068;-53
2022/01/13 05:52:38;;;;;;;26.65;7.65;;;;;;;;;;5025543;28;20055;-55
2022/01/13 05:55:07;;;;;;;23.58;7.88;;;;;;;;;;5047207;28;20056;-50
2022/01/13 05:57:34;;;;;;;;;;;;;;;;;;5029826;28;20179;-55
2022/01/13 06:00:00;;;;;;;20.48;6.53;;;;;;;;;;5024833;28;19990;-53
2022/01/13 06:02:27;;;;;;;23.02;7.38;;;;;;;;;;5030235;28;20073;-52
2022/01/13 06:04:53;;;;;;;25.55;7.47;;;;;;;;;;5025209;28;20069;-50
2022/01/13 06:07:20;;;;;;;22.33;6.32;;;;;;;;;;5028210;28;20069;-55
2022/01/13 06:09:46;;;;;;;25.70;7.45;;;;;;;;;;5023984;28;20071;-48
2022/01/13 06:12:16;;;;;;;24.70;7.10;;;;;;;;;;5029292;28;20060;-55
2022/01/13 06:14:42;;;;;;;26.55;7.68;;;;;;;;;;5023888;28;20057;-49
2022/01/13 06:17:09;;;;;;;21.00;6.40;;;;;;;;;;5029470;28;20049;-51
2022/01/13 06:19:36;;;;;;;19.40;6.50;;;;;;;;;;5024244;28;20076;-53
2022/01/13 06:22:03;;;;;;;21.00;6.40;;;;;;;;;;5028885;28;20138;-57
2022/01/13 06:24:29;;;;;;;26.00;7.35;;;;;;;;;;5022643;28;20060;-54
2022/01/13 06:26:57;;;;;;;25.35;7.00;;;;;;;;;;5029906;28;20057;-54
2022/01/13 06:29:25;;;;;;;30.35;8.65;;;;;;;;;;5019220;28;20138;-54
2022/01/13 06:31:52;;;;;;;25.10;7.27;;;;;;;;;;5030388;28;20071;-49
2022/01/13 06:34:18;;;;;;;21.52;6.93;;;;;;;;;;5026957;28;20049;-52
2022/01/13 06:36:46;;;;;;;25.67;7.22;;;;;;;;;;5028727;28;20092;-50
2022/01/13 06:39:13;;;;;;;23.85;8.73;;;;;;;;;;5026544;28;20052;-51
2022/01/13 06:41:40;;;;;;;25.13;7.32;;;;;;;;;;5022408;28;20049;-57
2022/01/13 06:44:06;;;;;;;25.52;8.00;;;;;;;;;;5028559;28;20060;-54
2022/01/13 06:46:34;;;;;;;23.63;6.25;;;;;;;;;;5024390;28;20048;-50
2022/01/13 06:49:01;;;;;;;24.73;6.78;;;;;;;;;;5029524;28;20045;-50
2022/01/13 06:51:27;;;;;;;27.35;8.32;;;;;;;;;;5022724;28;20138;-51
2022/01/13 06:53:54;;;;;;;27.23;7.00;;;;;;;;;;5029564;28;20060;-52
2022/01/13 06:56:21;;;;;;;22.67;6.85;;;;;;;;;;5022495;28;20057;-54
2022/01/13 06:58:51;;;;;;;19.65;6.68;;;;;;;;;;5029954;28;20067;-55
2022/01/13 07:01:18;;;;;;;23.52;7.60;;;;;;;;;;5023438;28;20061;-58
2022/01/13 07:03:46;;;;;;;24.95;7.75;;;;;;;;;;5026062;28;20133;-55
2022/01/13 07:06:12;;;;;;;24.50;7.00;;;;;;;;;;5019139;28;20065;-54
2022/01/13 07:08:39;;;;;;;24.38;8.25;;;;;;;;;;5025444;28;20057;-51
2022/01/13 07:11:06;;;;;;;23.08;7.28;;;;;;;;;;5003957;28;20060;-55
2022/01/13 07:13:33;;;;;;;22.52;6.40;;;;;;;;;;5014224;28;20057;-52
2022/01/13 07:16:01;;;;;;;23.30;7.63;;;;;;;;;;5003175;28;20069;-52
2022/01/13 07:18:27;;;;;;;20.52;7.22;;;;;;;;;;5028534;28;20056;-51
2022/01/13 07:20:57;;;;;;;18.63;6.80;;;;;;;;;;5028157;28;20117;-55
2022/01/13 07:23:23;;;;;;;17.48;6.07;;;;;;;;;;5028553;28;20148;-56
2022/01/13 07:25:50;;;;;;;21.75;6.85;;;;;;;;;;5026821;28;20054;-51
2022/01/13 07:28:17;;;;;;;17.70;6.15;;;;;;;;;;5023917;28;20065;-52
2022/01/13 07:30:43;;;;;;;20.17;6.45;;;;;;;;;;5025020;28;20395;-58
2022/01/13 07:33:10;;;;;;;20.48;6.68;;;;;;;;;;5011556;28;20144;-58
2022/01/13 07:35:37;;;;;;;16.08;5.53;;;;;;;;;;5007212;28;20046;-53
2022/01/13 07:38:05;;;;;;;19.48;6.45;;;;;;;;;;5012434;28;20057;-56
2022/01/13 07:40:31;;;;;;;16.52;5.47;;;;;;;;;;5027507;28;20058;-56
2022/01/13 07:42:58;;;;;;;13.65;5.55;;;;;;;;;;5011757;28;20049;-55
2022/01/13 07:45:24;;;;;;;16.80;5.97;;;;;;;;;;5026574;28;20089;-57
2022/01/13 07:47:51;;;;;;;15.13;5.07;;;;;;;;;;5020359;28;20046;-56
2022/01/13 07:50:18;;;;;;;15.10;5.05;;;;;;;;;;5026549;28;20127;-49
2022/01/13 07:52:44;;;;;;;15.65;5.13;;;;;;;;;;5021237;28;20049;-54
2022/01/13 07:55:14;;;;;;;16.67;5.95;;;;;;;;;;5043565;28;20473;-52
2022/01/13 07:57:41;;;;;;;17.17;5.90;;;;;;;;;;5020498;28;20054;-52
2022/01/13 08:00:08;;;;;;;16.10;5.30;;;;;;;;;;5027062;28;20073;-54
2022/01/13 08:02:35;;;;;;;15.50;5.83;;;;;;;;;;5026356;28;20061;-52
2022/01/13 08:05:02;;;;;;;18.48;6.30;;;;;;;;;;5021240;28;20053;-50
2022/01/13 08:07:30;;;;;;;15.90;5.20;;;;;;;;;;5026261;28;20053;-54
2022/01/13 08:09:56;;;;;;;14.80;5.78;;;;;;;;;;5021154;28;20054;-51
2022/01/13 08:12:27;;;;;;;17.42;5.57;;;;;;;;;;5028418;28;20578;-55
2022/01/13 08:14:53;;;;;;;21.35;6.82;;;;;;;;;;5026002;28;20059;-52
2022/01/13 08:19:45;;;;;;;22.42;7.43;;;;;;;;;;5025675;28;20060;-50
2022/01/13 08:20:10;;;;;;;19.85;5.72;;;;;;;;;;5021761;28;20053;-51
2022/01/13 08:22:37;;;;;;;15.75;5.38;;;;;;;;;;5027013;28;20139;-54
2022/01/13 08:25:03;;;;;;;15.38;5.07;;;;;;;;;;5021724;28;20056;-49
2022/01/13 08:27:33;;;;;;;18.40;5.90;;;;;;;;;;5026509;28;20053;-54
2022/01/13 08:29:59;;;;;;;12.82;5.00;;;;;;;;;;5018270;28;20078;-55
2022/01/13 08:32:26;;;;;;;15.70;5.75;;;;;;;;;;5023077;28;20057;-58
2022/01/13 08:34:52;;;;;;;14.80;5.38;;;;;;;;;;5022075;28;20046;-53
2022/01/13 08:37:20;;;;;;;19.63;6.22;;;;;;;;;;5045679;28;20056;-53
2022/01/13 08:39:46;;;;;;;17.00;5.70;;;;;;;;;;5022677;28;20052;-51
2022/01/13 08:42:13;;;;;;;15.93;5.20;;;;;;;;;;5042890;28;20049;-55
2022/01/13 08:44:42;;;;;;;14.52;4.78;;;;;;;;;;5021404;28;20064;-55
2022/01/13 08:47:09;;;;;;;18.15;5.78;;;;;;;;;;5041771;28;20049;-51
2022/01/13 08:49:36;;;;;;;16.85;5.13;;;;;;;;;;5038871;28;20042;-50
2022/01/13 08:52:03;;;;;;;20.83;6.07;;;;;;;;;;5026969;28;20052;-55
2022/01/13 08:54:29;;;;;;;17.05;5.32;;;;;;;;;;5027340;28;20077;-51
2022/01/13 08:56:57;;;;;;;15.90;5.40;;;;;;;;;;5020559;28;20049;-55
2022/01/13 08:59:23;;;;;;;20.83;5.43;;;;;;;;;;5025927;28;20053;-56
2022/01/13 09:01:51;;;;;;;19.90;6.18;;;;;;;;;;5016124;28;20108;-52
2022/01/13 09:04:18;;;;;;;16.52;5.22;;;;;;;;;;5041122;28;20057;-53
2022/01/13 09:06:45;;;;;;;13.65;5.18;;;;;;;;;;5019189;28;20150;-57
2022/01/13 09:09:13;;;;;;;18.73;5.80;;;;;;;;;;5025041;28;20080;-55
2022/01/13 09:11:40;;;;;;;;;;;;;;;;;;5018288;28;20140;-52
2022/01/13 09:14:06;;;;;;;14.35;4.93;;;;;;;;;;5024850;28;20007;-53
2022/01/13 09:16:41;;;;;;;18.88;5.85;;;;;;;;;;5019431;28;20069;-54
2022/01/13 09:19:10;;;;;;;17.92;5.45;;;;;;;;;;5023734;28;20057;-52
2022/01/13 09:21:38;;;;;;;14.48;5.05;;;;;;;;;;5019582;28;20123;-53
2022/01/13 09:24:05;;;;;;;19.48;6.07;;;;;;;;;;5024366;28;20075;-56
2022/01/13 09:26:32;;;;;;;16.92;5.38;;;;;;;;;;5019405;28;20255;-47
2022/01/13 09:28:58;;;;;;;16.45;5.47;;;;;;;;;;5025104;28;20139;-51
2022/01/13 09:31:26;;;;;;;14.43;4.85;;;;;;;;;;5020476;28;20056;-51
2022/01/13 09:33:53;;;;;;;12.67;4.63;;;;;;;;;;5024943;28;20061;-51
2022/01/13 09:36:21;;;;;;;17.38;5.90;;;;;;;;;;5023034;28;20107;-55
2022/01/13 09:38:48;;;;;;;;;;;;;;;;;;5023622;28;20057;-51
2022/01/13 09:41:15;;;;;;;13.75;4.82;;;;;;;;;;5024747;28;19975;-58
2022/01/13 09:43:43;;;;;;;17.35;5.95;;;;;;;;;;5019068;28;20119;-59
2022/01/13 09:46:11;;;;;;;18.40;6.30;;;;;;;;;;5014065;28;20049;-55
2022/01/13 09:48:38;;;;;;;18.08;5.70;;;;;;;;;;5018160;28;20045;-57
2022/01/13 09:51:05;;;;;;;18.17;5.28;;;;;;;;;;5024505;28;20060;-56
2022/01/13 09:53:33;;;;;;;15.90;5.20;;;;;;;;;;5017702;28;20058;-51
2022/01/13 09:55:59;;;;;;;23.43;6.50;;;;;;;;;;5025223;28;20046;-53
2022/01/13 09:58:28;;;;;;;19.27;6.95;;;;;;;;;;5016768;28;20085;-58
2022/01/13 10:00:55;;;;;;;19.73;5.80;;;;;;;;;;5024688;28;20054;-52
2022/01/13 10:03:25;;;;;;;15.25;5.28;;;;;;;;;;5017330;28;20053;-54
2022/01/13 10:05:53;;;;;;;15.55;5.13;;;;;;;;;;5024255;28;20057;-48
2022/01/13 10:08:21;;;;;;;15.70;5.38;;;;;;;;;;5015994;28;20076;-54
2022/01/13 10:10:49;;;;;;;19.30;6.10;;;;;;;;;;5022113;28;20053;-58
2022/01/13 10:13:24;;;;;;;11.90;4.72;;;;;;;;;;5016561;28;20057;-51
2022/01/13 10:18:38;;;;;;;15.63;4.40;;;;;;;;;;5015065;28;20215;-54
2022/01/13 10:21:06;;;;;;;15.07;5.60;;;;;;;;;;5021169;28;20053;-54
2022/01/13 10:23:32;;;;;;;18.60;5.72;;;;;;;;;;5017045;28;20056;-53
2022/01/13 10:26:07;;;;;;;14.30;5.68;;;;;;;;;;5020570;28;20077;-55
2022/01/13 10:28:34;;;;;;;16.20;5.55;;;;;;;;;;5015785;28;20057;-51
2022/01/13 10:31:00;;;;;;;13.27;4.65;;;;;;;;;;5022735;28;20056;-56
2022/01/13 10:33:29;;;;;;;16.35;5.72;;;;;;;;;;5022450;28;20081;-54
2022/01/13 10:36:08;;;;;;;18.13;5.75;;;;;;;;;;5015147;28;20046;-53
2022/01/13 10:38:58;;;;;;;17.88;5.85;;;;;;;;;;5004216;28;20037;-51
2022/01/13 10:41:36;;;;;;;20.38;5.82;;;;;;;;;;5001299;28;20057;-56
2022/01/13 10:44:12;;;;;;;20.50;6.60;;;;;;;;;;5021523;28;20058;-54
2022/01/13 10:46:58;;;;;;;18.75;6.40;;;;;;;;;;5024642;28;20053;-53
2022/01/13 10:49:35;;;;;;;21.27;6.80;;;;;;;;;;5019763;28;20057;-54
2022/01/13 10:52:18;;;;;;;20.08;7.10;;;;;;;;;;5028075;28;20076;-54
2022/01/13 10:54:45;;;;;;;13.30;4.50;;;;;;;;;;5021565;28;20136;-54
2022/01/13 10:57:21;;;;;;;26.55;7.47;;;;;;;;;;5040905;28;20145;-53
2022/01/13 10:59:48;;;;;;;20.10;7.28;;;;;;;;;;5019647;28;20084;-53
2022/01/13 11:02:15;;;;;;;23.80;6.95;;;;;;;;;;5028791;28;20071;-48
2022/01/13 11:04:42;;;;;;;17.95;6.18;;;;;;;;;;5029759;28;20055;-52
2022/01/13 11:07:13;;;;;;;20.95;6.18;;;;;;;;;;5026462;28;20142;-58
2022/01/13 11:09:42;;;;;;;20.73;6.75;;;;;;;;;;5027759;28;20056;-52
2022/01/13 11:12:09;;;;;;;20.00;6.57;;;;;;;;;;5022831;28;20168;-51
2022/01/13 11:14:42;;;;;;;17.08;6.20;;;;;;;;;;5028382;28;20057;-54
2022/01/13 11:17:10;;;;;;;23.52;6.95;;;;;;;;;;5024560;28;20049;-51
2022/01/13 11:19:37;;;;;;;22.63;7.22;;;;;;;;;;5028738;28;20050;-51
2022/01/13 11:22:04;;;;;;;21.60;7.88;;;;;;;;;;5024482;28;20139;-52
2022/01/13 11:24:31;;;;;;;19.15;7.30;;;;;;;;;;5030299;28;20204;-54
2022/01/13 11:26:58;;;;;;;22.65;7.28;;;;;;;;;;5023119;28;20065;-52
2022/01/13 11:29:25;;;;;;;22.05;6.93;;;;;;;;;;5029585;28;20144;-56
2022/01/13 11:31:56;;;;;;;20.98;7.43;;;;;;;;;;5024092;28;20053;-54
2022/01/13 11:34:23;;;;;;;17.73;6.38;;;;;;;;;;5029950;28;20057;-54
2022/01/13 11:36:49;;;;;;;17.52;6.35;;;;;;;;;;5024854;28;20072;-50
2022/01/13 11:39:16;;;;;;;18.45;6.13;;;;;;;;;;5027917;28;20068;-58
2022/01/13 11:42:02;;;;;;;20.83;6.07;;;;;;;;;;5021574;28;20053;-51
2022/01/13 11:44:29;;;;;;;18.60;6.53;;;;;;;;;;5028148;28;20060;-59
2022/01/13 11:46:58;;;;;;;21.73;6.63;;;;;;;;;;5023238;28;20075;-55
2022/01/13 11:49:37;;;;;;;19.10;6.35;;;;;;;;;;5027924;28;20052;-51
2022/01/13 11:52:13;;;;;;;19.23;6.18;;;;;;;;;;5022426;28;20052;-54
2022/01/13 11:54:39;;;;;;;22.85;6.72;;;;;;;;;;5028394;28;20115;-55
2022/01/13 11:57:11;;;;;;;18.30;6.55;;;;;;;;;;5022633;28;20057;-54
2022/01/13 11:59:37;;;;;;;17.52;6.07;;;;;;;;;;5029327;28;20144;-57
2022/01/13 12:02:18;;;;;;;21.48;6.70;;;;;;;;;;5006877;28;20053;-54
2022/01/13 12:05:00;;;;;;;21.05;6.88;;;;;;;;;;5026878;28;20114;-55
2022/01/13 12:07:38;;;;;;;19.85;7.65;;;;;;;;;;5021633;28;20052;-54
2022/01/13 12:10:10;;;;;;;16.73;6.63;;;;;;;;;;5024940;28;20061;-57
2022/01/13 12:12:38;;;;;;;18.50;6.45;;;;;;;;;;5019553;28;20067;-56
2022/01/13 12:15:14;;;;;;;17.08;6.35;;;;;;;;;;5043761;28;20045;-53
2022/01/13 12:17:44;;;;;;;17.50;5.82;;;;;;;;;;5012745;28;20159;-53
2022/01/13 12:20:21;;;;;;;19.10;6.60;;;;;;;;;;5028377;28;20156;-58
2022/01/13 12:22:57;;;;;;;18.63;7.25;;;;;;;;;;5026349;28;20126;-51
2022/01/13 12:25:31;;;;;;;13.60;5.95;;;;;;;;;;5028311;28;20098;-51
2022/01/13 12:27:58;;;;;;;21.77;6.75;;;;;;;;;;5028597;28;20061;-55
2022/01/13 12:30:26;;;;;;;17.30;5.70;;;;;;;;;;5041743;28;20068;-55
2022/01/13 12:32:54;;;;;;;17.80;6.70;;;;;;;;;;5027659;28;20107;-55
2022/01/13 12:35:32;;;;;;;21.48;7.15;;;;;;;;;;5022527;28;20060;-57
2022/01/13 12:38:01;;;;;;;19.48;6.47;;;;;;;;;;5026878;28;20052;-57
2022/01/13 12:40:33;;;;;;;16.15;5.75;;;;;;;;;;5021881;28;20052;-50
2022/01/13 12:43:12;;;;;;;18.83;6.85;;;;;;;;;;5028113;28;20068;-52
2022/01/13 12:45:39;;;;;;;16.63;5.90;;;;;;;;;;5022686;28;20052;-56
2022/01/13 12:48:07;;;;;;;20.40;5.80;;;;;;;;;;5028185;28;20103;-56
2022/01/13 12:50:37;;;;;;;19.83;6.13;;;;;;;;;;5021771;28;20056;-51
2022/01/13 12:53:09;;;;;;;20.65;6.50;;;;;;;;;;5025702;28;20147;-54
2022/01/13 12:55:37;;;;;;;14.35;5.45;;;;;;;;;;5019804;28;20049;-55
2022/01/13 12:58:05;;;;;;;14.50;4.97;;;;;;;;;;5028379;28;20045;-53
2022/01/13 13:00:32;;;;;;;18.02;5.80;;;;;;;;;;5022903;28;20099;-51
2022/01/13 13:03:05;;;;;;;22.60;7.22;;;;;;;;;;5026353;28;20061;-55
2022/01/13 13:05:33;;;;;;;23.30;7.93;;;;;;;;;;5013991;28;20049;-55
2022/01/13 13:08:00;;;;;;;19.55;7.13;;;;;;;;;;5022982;28;20079;-54
2022/01/13 13:10:29;;;;;;;23.55;7.03;;;;;;;;;;5017374;28;20053;-56
2022/01/13 13:12:56;;;;;;;20.48;6.65;;;;;;;;;;5021831;28;20128;-53
2022/01/13 13:15:41;;;;;;;20.10;7.00;;;;;;;;;;5017904;28;20057;-56
2022/01/13 13:18:17;;;;;;;21.05;6.72;;;;;;;;;;5021006;28;20065;-54
2022/01/13 13:20:44;;;;;;;20.50;6.95;;;;;;;;;;5015317;28;20517;-58
2022/01/13 13:23:11;;;;;;;19.17;7.55;;;;;;;;;;5021498;28;20310;-58
2022/01/13 13:25:41;;;;;;;18.52;6.43;;;;;;;;;;5016842;28;20395;-58
2022/01/13 13:28:35;;;;;;;22.15;6.90;;;;;;;;;;5021903;28;20054;-58
2022/01/13 13:31:03;;;;;;;21.00;6.90;;;;;;;;;;5001644;28;20058;-59
2022/01/13 13:33:35;;;;;;;20.47;7.03;;;;;;;;;;5022834;28;20053;-59
2022/01/13 13:36:03;;;;;;;21.88;7.03;;;;;;;;;;5015487;28;20429;-58
2022/01/13 13:38:30;;;;;;;29.23;8.20;;;;;;;;;;5021318;28;20053;-58
2022/01/13 13:40:58;;;;;;;23.90;7.88;;;;;;;;;;5017555;28;20080;-53
2022/01/13 13:43:31;;;;;;;19.48;7.03;;;;;;;;;;5024580;28;20057;-59
2022/01/13 13:46:02;;;;;;;22.40;7.55;;;;;;;;;;5021271;28;20127;-60
2022/01/13 13:48:32;;;;;;;16.30;5.38;;;;;;;;;;5019604;28;20053;-58
2022/01/13 13:50:58;;;;;;;24.70;7.45;;;;;;;;;;5020415;28;20061;-56
2022/01/13 13:53:25;;;;;;;23.70;8.40;;;;;;;;;;5016466;28;20053;-54
2022/01/13 13:55:59;;;;;;;25.48;8.70;;;;;;;;;;5023718;28;20081;-53
2022/01/13 13:58:26;;;;;;;24.13;6.78;;;;;;;;;;5016903;28;20125;-51
2022/01/13 14:01:02;;;;;;;18.35;6.05;;;;;;;;;;5022622;28;20065;-51
2022/01/13 14:03:39;;;;;;;28.50;9.10;;;;;;;;;;5015818;28;20084;-55
2022/01/13 14:06:09;;;;;;;22.00;6.68;;;;;;;;;;5024407;28;20057;-55
2022/01/13 14:08:52;;;;;;;21.38;7.35;;;;;;;;;;5016331;28;20107;-56
2022/01/13 14:11:20;;;;;;;20.33;6.82;;;;;;;;;;5023825;28;20045;-53
2022/01/13 14:13:46;;;;;;;23.60;7.90;;;;;;;;;;5019767;28;20103;-52
2022/01/13 14:16:14;;;;;;;33.47;10.23;;;;;;;;;;5027375;28;20053;-52
2022/01/13 14:18:40;;;;;;;28.77;8.60;;;;;;;;;;5021636;28;20059;-57
2022/01/13 14:21:07;;;;;;;22.50;6.88;;;;;;;;;;5028812;28;20076;-52
2022/01/13 14:23:34;;;;;;;23.77;7.43;;;;;;;;;;5022520;28;20053;-56
2022/01/13 14:26:02;;;;;;;19.70;6.65;;;;;;;;;;5028854;28;20092;-57
2022/01/13 14:28:31;;;;;;;20.60;7.18;;;;;;;;;;5024154;28;20060;-58
2022/01/13 14:31:01;;;;;;;20.73;6.90;;;;;;;;;;5020790;28;20045;-52
2022/01/13 14:33:30;;;;;;;19.20;7.15;;;;;;;;;;5022717;28;20051;-51
2022/01/13 14:35:57;;;;;;;;;;;;;;;;;;5027344;28;20060;-55
2022/01/13 14:38:24;;;;;;;23.08;7.85;;;;;;;;;;5022350;28;20365;-53
2022/01/13 14:40:50;;;;;;;21.95;7.93;;;;;;;;;;5028338;28;20061;-54
2022/01/13 14:43:21;;;;;;;25.27;8.30;;;;;;;;;;5024553;28;20081;-55
2022/01/13 14:46:03;;;;;;;21.25;6.20;;;;;;;;;;5027920;28;20057;-52
2022/01/13 14:48:29;;;;;;;26.25;8.25;;;;;;;;;;5022675;28;20054;-54
2022/01/13 14:51:04;;;;;;;20.15;7.57;;;;;;;;;;5026797;28;20057;-55